sensor_id;sensor_type;location;lat;lon;timestamp;temperature;humidity
14962;DHT22;56489;53.166;10.864;2022-08-25T00:02:11;18.70;99.90
14962;DHT22;56489;53.166;10.864;2022-08-25T00:04:39;18.60;99.90
14962;DHT22;56489;53.166;10.864;2022-08-25T00:07:06;18.60;99.90
14962;DHT22;56489;53.166;10.864;2022-08-25T00:09:33;18.60;99.90
14962;DHT22;56489;53.166;10.864;2022-08-25T00:12:02;18.60;99.90
14962;DHT22;56489;53.166;10.864;2022-08-25T00:14:32;18.50;99.90
14962;DHT22;56489;53.166;10.864;2022-08-25T00:17:00;18.50;99.90
14962;DHT22;56489;53.166;10.864;2022-08-25T00:19:30;18.50;99.90
14962;DHT22;56489;53.166;10.864;2022-08-25T00:21:58;18.40;99.90
14962;DHT22;56489;53.166;10.864;2022-08-25T00:24:24;18.40;99.90
14962;DHT22;56489;53.166;10.864;2022-08-25T00:26:54;18.30;99.90
14962;DHT22;56489;53.166;10.864;2022-08-25T00:29:23;18.40;99.90
14962;DHT22;56489;53.166;10.864;2022-08-25T00:31:54;18.30;99.90
14962;DHT22;56489;53.166;10.864;2022-08-25T00:34:25;18.30;99.90
14962;DHT22;56489;53.166;10.864;2022-08-25T00:36:52;18.30;99.90
14962;DHT22;56489;53.166;10.864;2022-08-25T00:39:20;18.30;99.90
14962;DHT22;56489;53.166;10.864;2022-08-25T00:41:49;18.30;99.90
14962;DHT22;56489;53.166;10.864;2022-08-25T00:44:16;18.20;99.90
14962;DHT22;56489;53.166;10.864;2022-08-25T00:46:48;18.20;99.90
14962;DHT22;56489;53.166;10.864;2022-08-25T00:49:38;18.10;99.90
14962;DHT22;56489;53.166;10.864;2022-08-25T00:52:10;18.10;99.90
14962;DHT22;56489;53.166;10.864;2022-08-25T00:54:55;18.10;99.90
14962;DHT22;56489;53.166;10.864;2022-08-25T00:57:29;18.10;99.90
14962;DHT22;56489;53.166;10.864;2022-08-25T01:00:04;18.10;99.90
14962;DHT22;56489;53.166;10.864;2022-08-25T01:02:32;18.00;99.90
14962;DHT22;56489;53.166;10.864;2022-08-25T01:04:58;17.90;99.90
14962;DHT22;56489;53.166;10.864;2022-08-25T01:07:25;18.00;99.90
14962;DHT22;56489;53.166;10.864;2022-08-25T01:09:52;17.90;99.90
14962;DHT22;56489;53.166;10.864;2022-08-25T01:12:19;18.00;99.90
14962;DHT22;56489;53.166;10.864;2022-08-25T01:14:47;17.90;99.90
14962;DHT22;56489;53.166;10.864;2022-08-25T01:17:15;17.90;99.90
14962;DHT22;56489;53.166;10.864;2022-08-25T01:19:42;17.90;99.90
14962;DHT22;56489;53.166;10.864;2022-08-25T01:22:09;17.90;99.90
14962;DHT22;56489;53.166;10.864;2022-08-25T01:24:44;17.80;99.90
14962;DHT22;56489;53.166;10.864;2022-08-25T01:27:12;17.80;99.90
14962;DHT22;56489;53.166;10.864;2022-08-25T01:29:39;17.80;99.90
14962;DHT22;56489;53.166;10.864;2022-08-25T01:32:12;17.70;99.90
14962;DHT22;56489;53.166;10.864;2022-08-25T01:34:41;17.70;99.90
14962;DHT22;56489;53.166;10.864;2022-08-25T01:37:09;17.60;99.90
14962;DHT22;56489;53.166;10.864;2022-08-25T01:39:40;17.70;99.90
14962;DHT22;56489;53.166;10.864;2022-08-25T01:42:08;17.70;99.90
14962;DHT22;56489;53.166;10.864;2022-08-25T01:44:41;17.60;99.90
14962;DHT22;56489;53.166;10.864;2022-08-25T01:47:09;17.60;99.90
14962;DHT22;56489;53.166;10.864;2022-08-25T01:49:36;17.70;99.90
14962;DHT22;56489;53.166;10.864;2022-08-25T01:52:23;17.60;99.90
14962;DHT22;56489;53.166;10.864;2022-08-25T01:54:50;17.60;99.90
14962;DHT22;56489;53.166;10.864;2022-08-25T01:57:16;17.60;99.90
14962;DHT22;56489;53.166;10.864;2022-08-25T01:59:43;17.60;99.90
14962;DHT22;56489;53.166;10.864;2022-08-25T02:02:10;17.60;99.90
14962;DHT22;56489;53.166;10.864;2022-08-25T02:04:37;17.60;99.90
14962;DHT22;56489;53.166;10.864;2022-08-25T02:07:07;17.60;99.90
14962;DHT22;56489;53.166;10.864;2022-08-25T02:09:35;17.70;99.90
14962;DHT22;56489;53.166;10.864;2022-08-25T02:12:02;17.50;99.90
14962;DHT22;56489;53.166;10.864;2022-08-25T02:14:29;17.50;99.90
14962;DHT22;56489;53.166;10.864;2022-08-25T02:16:56;17.50;99.90
14962;DHT22;56489;53.166;10.864;2022-08-25T02:19:23;17.50;99.90
14962;DHT22;56489;53.166;10.864;2022-08-25T02:21:51;17.50;99.90
14962;DHT22;56489;53.166;10.864;2022-08-25T02:24:18;17.50;99.90
14962;DHT22;56489;53.166;10.864;2022-08-25T02:26:45;17.40;99.90
14962;DHT22;56489;53.166;10.864;2022-08-25T02:29:12;17.40;99.90
14962;DHT22;56489;53.166;10.864;2022-08-25T02:31:38;17.30;99.90
14962;DHT22;56489;53.166;10.864;2022-08-25T02:34:06;17.50;99.90
14962;DHT22;56489;53.166;10.864;2022-08-25T02:36:34;17.40;99.90
14962;DHT22;56489;53.166;10.864;2022-08-25T02:39:01;17.30;99.90
14962;DHT22;56489;53.166;10.864;2022-08-25T02:41:29;17.40;99.90
14962;DHT22;56489;53.166;10.864;2022-08-25T02:44:01;17.40;99.90
14962;DHT22;56489;53.166;10.864;2022-08-25T02:46:28;17.40;99.90
14962;DHT22;56489;53.166;10.864;2022-08-25T02:48:56;17.40;99.90
14962;DHT22;56489;53.166;10.864;2022-08-25T02:51:24;17.30;99.90
14962;DHT22;56489;53.166;10.864;2022-08-25T02:53:51;17.30;99.90
14962;DHT22;56489;53.166;10.864;2022-08-25T02:56:18;17.20;99.90
14962;DHT22;56489;53.166;10.864;2022-08-25T02:58:46;17.30;99.90
14962;DHT22;56489;53.166;10.864;2022-08-25T03:01:13;17.20;99.90
14962;DHT22;56489;53.166;10.864;2022-08-25T03:03:41;17.30;99.90
14962;DHT22;56489;53.166;10.864;2022-08-25T03:06:11;17.30;99.90
14962;DHT22;56489;53.166;10.864;2022-08-25T03:08:39;17.30;99.90
14962;DHT22;56489;53.166;10.864;2022-08-25T03:11:05;17.20;99.90
14962;DHT22;56489;53.166;10.864;2022-08-25T03:13:32;17.30;99.90
14962;DHT22;56489;53.166;10.864;2022-08-25T03:16:00;17.30;99.90
14962;DHT22;56489;53.166;10.864;2022-08-25T03:18:29;17.20;99.90
14962;DHT22;56489;53.166;10.864;2022-08-25T03:20:56;17.30;99.90
14962;DHT22;56489;53.166;10.864;2022-08-25T03:23:23;17.20;99.90
14962;DHT22;56489;53.166;10.864;2022-08-25T03:25:49;17.20;99.90
14962;DHT22;56489;53.166;10.864;2022-08-25T03:28:34;17.10;99.90
14962;DHT22;56489;53.166;10.864;2022-08-25T03:31:02;17.20;99.90
14962;DHT22;56489;53.166;10.864;2022-08-25T03:33:29;17.00;99.90
14962;DHT22;56489;53.166;10.864;2022-08-25T03:35:56;17.00;99.90
14962;DHT22;56489;53.166;10.864;2022-08-25T03:38:24;16.90;99.90
14962;DHT22;56489;53.166;10.864;2022-08-25T03:40:51;16.90;99.90
14962;DHT22;56489;53.166;10.864;2022-08-25T03:43:18;16.90;99.90
14962;DHT22;56489;53.166;10.864;2022-08-25T03:45:46;16.80;99.90
14962;DHT22;56489;53.166;10.864;2022-08-25T03:48:14;17.00;99.90
14962;DHT22;56489;53.166;10.864;2022-08-25T03:50:47;16.90;99.90
14962;DHT22;56489;53.166;10.864;2022-08-25T03:53:18;16.80;99.90
14962;DHT22;56489;53.166;10.864;2022-08-25T03:55:44;16.80;99.90
14962;DHT22;56489;53.166;10.864;2022-08-25T03:58:11;16.70;99.90
14962;DHT22;56489;53.166;10.864;2022-08-25T04:00:38;16.70;99.90
14962;DHT22;56489;53.166;10.864;2022-08-25T04:03:04;16.70;99.90
14962;DHT22;56489;53.166;10.864;2022-08-25T04:05:31;16.70;99.90
14962;DHT22;56489;53.166;10.864;2022-08-25T04:07:58;16.70;99.90
14962;DHT22;56489;53.166;10.864;2022-08-25T04:10:27;16.60;99.90
14962;DHT22;56489;53.166;10.864;2022-08-25T04:12:55;16.80;99.90
14962;DHT22;56489;53.166;10.864;2022-08-25T04:15:21;16.70;99.90
14962;DHT22;56489;53.166;10.864;2022-08-25T04:17:54;16.60;99.90
14962;DHT22;56489;53.166;10.864;2022-08-25T04:20:20;16.60;99.90
14962;DHT22;56489;53.166;10.864;2022-08-25T04:22:47;16.70;99.90
14962;DHT22;56489;53.166;10.864;2022-08-25T04:25:14;16.70;99.90
14962;DHT22;56489;53.166;10.864;2022-08-25T04:27:40;16.80;99.90
14962;DHT22;56489;53.166;10.864;2022-08-25T04:30:07;16.80;99.90
14962;DHT22;56489;53.166;10.864;2022-08-25T04:32:35;16.90;99.90
14962;DHT22;56489;53.166;10.864;2022-08-25T04:35:03;17.00;99.90
14962;DHT22;56489;53.166;10.864;2022-08-25T04:37:31;17.00;99.90
14962;DHT22;56489;53.166;10.864;2022-08-25T04:39:58;17.10;99.90
14962;DHT22;56489;53.166;10.864;2022-08-25T04:42:25;17.20;99.90
14962;DHT22;56489;53.166;10.864;2022-08-25T04:44:52;17.20;99.90
14962;DHT22;56489;53.166;10.864;2022-08-25T04:47:20;17.20;99.90
14962;DHT22;56489;53.166;10.864;2022-08-25T04:49:46;17.20;99.90
14962;DHT22;56489;53.166;10.864;2022-08-25T04:52:13;17.30;99.90
14962;DHT22;56489;53.166;10.864;2022-08-25T04:54:41;17.30;99.90
14962;DHT22;56489;53.166;10.864;2022-08-25T04:57:08;17.40;99.90
14962;DHT22;56489;53.166;10.864;2022-08-25T04:59:35;17.30;99.90
14962;DHT22;56489;53.166;10.864;2022-08-25T05:02:02;17.40;99.90
14962;DHT22;56489;53.166;10.864;2022-08-25T05:04:34;17.40;99.90
14962;DHT22;56489;53.166;10.864;2022-08-25T05:07:02;17.40;99.90
14962;DHT22;56489;53.166;10.864;2022-08-25T05:09:29;17.40;99.90
14962;DHT22;56489;53.166;10.864;2022-08-25T05:11:59;17.50;99.90
14962;DHT22;56489;53.166;10.864;2022-08-25T05:14:26;17.50;99.90
14962;DHT22;56489;53.166;10.864;2022-08-25T05:16:54;17.50;99.90
14962;DHT22;56489;53.166;10.864;2022-08-25T05:19:21;17.50;99.90
14962;DHT22;56489;53.166;10.864;2022-08-25T05:21:49;17.50;99.90
14962;DHT22;56489;53.166;10.864;2022-08-25T05:24:17;17.50;99.90
14962;DHT22;56489;53.166;10.864;2022-08-25T05:26:43;17.50;99.90
14962;DHT22;56489;53.166;10.864;2022-08-25T05:29:12;17.50;99.90
14962;DHT22;56489;53.166;10.864;2022-08-25T05:31:39;17.60;99.90
14962;DHT22;56489;53.166;10.864;2022-08-25T05:34:12;17.60;99.90
14962;DHT22;56489;53.166;10.864;2022-08-25T05:36:39;17.60;99.90
14962;DHT22;56489;53.166;10.864;2022-08-25T05:39:09;17.70;99.90
14962;DHT22;56489;53.166;10.864;2022-08-25T05:41:36;17.70;99.90
14962;DHT22;56489;53.166;10.864;2022-08-25T05:44:03;17.80;99.90
14962;DHT22;56489;53.166;10.864;2022-08-25T05:46:30;17.70;99.90
14962;DHT22;56489;53.166;10.864;2022-08-25T05:48:57;17.80;99.90
14962;DHT22;56489;53.166;10.864;2022-08-25T05:51:24;17.70;99.90
14962;DHT22;56489;53.166;10.864;2022-08-25T05:53:51;17.80;99.90
14962;DHT22;56489;53.166;10.864;2022-08-25T05:56:18;17.80;99.90
14962;DHT22;56489;53.166;10.864;2022-08-25T05:58:45;17.90;99.90
14962;DHT22;56489;53.166;10.864;2022-08-25T06:01:21;17.90;99.90
14962;DHT22;56489;53.166;10.864;2022-08-25T06:04:10;18.00;99.90
14962;DHT22;56489;53.166;10.864;2022-08-25T06:06:38;18.00;99.90
14962;DHT22;56489;53.166;10.864;2022-08-25T06:09:05;18.10;99.90
14962;DHT22;56489;53.166;10.864;2022-08-25T06:11:35;18.10;99.90
14962;DHT22;56489;53.166;10.864;2022-08-25T06:14:02;18.20;99.90
14962;DHT22;56489;53.166;10.864;2022-08-25T06:16:30;18.30;99.90
14962;DHT22;56489;53.166;10.864;2022-08-25T06:18:57;18.30;99.90
14962;DHT22;56489;53.166;10.864;2022-08-25T06:21:23;18.40;99.90
14962;DHT22;56489;53.166;10.864;2022-08-25T06:23:50;18.40;99.90
14962;DHT22;56489;53.166;10.864;2022-08-25T06:26:18;18.60;99.90
14962;DHT22;56489;53.166;10.864;2022-08-25T06:28:48;18.60;99.90
14962;DHT22;56489;53.166;10.864;2022-08-25T06:31:14;18.70;99.90
14962;DHT22;56489;53.166;10.864;2022-08-25T06:33:42;18.70;99.90
14962;DHT22;56489;53.166;10.864;2022-08-25T06:36:09;18.70;99.90
14962;DHT22;56489;53.166;10.864;2022-08-25T06:38:36;18.70;99.90
14962;DHT22;56489;53.166;10.864;2022-08-25T06:41:04;18.80;99.90
14962;DHT22;56489;53.166;10.864;2022-08-25T06:43:31;18.90;99.90
14962;DHT22;56489;53.166;10.864;2022-08-25T06:46:13;18.90;99.90
14962;DHT22;56489;53.166;10.864;2022-08-25T06:48:41;19.00;99.90
14962;DHT22;56489;53.166;10.864;2022-08-25T06:51:11;19.10;99.90
14962;DHT22;56489;53.166;10.864;2022-08-25T06:53:40;19.10;99.90
14962;DHT22;56489;53.166;10.864;2022-08-25T06:56:07;19.10;99.90
14962;DHT22;56489;53.166;10.864;2022-08-25T06:58:34;19.10;99.90
14962;DHT22;56489;53.166;10.864;2022-08-25T07:03:46;19.20;99.90
14962;DHT22;56489;53.166;10.864;2022-08-25T07:06:13;19.20;99.90
14962;DHT22;56489;53.166;10.864;2022-08-25T07:08:42;19.30;99.90
14962;DHT22;56489;53.166;10.864;2022-08-25T07:11:09;19.30;99.90
14962;DHT22;56489;53.166;10.864;2022-08-25T07:13:43;19.20;99.90
14962;DHT22;56489;53.166;10.864;2022-08-25T07:16:10;19.30;99.90
14962;DHT22;56489;53.166;10.864;2022-08-25T07:18:37;19.30;99.90
14962;DHT22;56489;53.166;10.864;2022-08-25T07:21:04;19.40;99.90
14962;DHT22;56489;53.166;10.864;2022-08-25T07:23:34;19.40;99.90
14962;DHT22;56489;53.166;10.864;2022-08-25T07:26:13;19.40;99.90
14962;DHT22;56489;53.166;10.864;2022-08-25T07:29:02;19.40;99.90
14962;DHT22;56489;53.166;10.864;2022-08-25T07:31:31;19.30;99.90
14962;DHT22;56489;53.166;10.864;2022-08-25T07:33:57;19.30;99.90
14962;DHT22;56489;53.166;10.864;2022-08-25T07:36:43;19.40;99.90
14962;DHT22;56489;53.166;10.864;2022-08-25T07:39:10;19.50;99.90
14962;DHT22;56489;53.166;10.864;2022-08-25T07:41:38;19.40;99.90
14962;DHT22;56489;53.166;10.864;2022-08-25T07:44:06;19.50;99.90
14962;DHT22;56489;53.166;10.864;2022-08-25T07:46:36;19.60;99.90
14962;DHT22;56489;53.166;10.864;2022-08-25T07:49:03;19.70;99.90
14962;DHT22;56489;53.166;10.864;2022-08-25T07:51:42;19.80;99.90
14962;DHT22;56489;53.166;10.864;2022-08-25T07:54:28;19.90;99.90
14962;DHT22;56489;53.166;10.864;2022-08-25T07:57:00;19.90;99.90
14962;DHT22;56489;53.166;10.864;2022-08-25T07:59:27;19.90;99.90
14962;DHT22;56489;53.166;10.864;2022-08-25T08:01:53;20.00;99.90
14962;DHT22;56489;53.166;10.864;2022-08-25T08:04:20;20.20;99.90
14962;DHT22;56489;53.166;10.864;2022-08-25T08:06:47;20.10;99.90
14962;DHT22;56489;53.166;10.864;2022-08-25T08:09:14;20.00;99.90
14962;DHT22;56489;53.166;10.864;2022-08-25T08:11:41;20.20;99.90
14962;DHT22;56489;53.166;10.864;2022-08-25T08:14:19;20.20;99.90
14962;DHT22;56489;53.166;10.864;2022-08-25T08:16:46;20.30;99.90
14962;DHT22;56489;53.166;10.864;2022-08-25T08:19:12;20.20;99.90
14962;DHT22;56489;53.166;10.864;2022-08-25T08:21:39;20.20;99.90
14962;DHT22;56489;53.166;10.864;2022-08-25T08:24:06;20.50;99.90
14962;DHT22;56489;53.166;10.864;2022-08-25T08:26:53;20.50;99.90
14962;DHT22;56489;53.166;10.864;2022-08-25T08:29:24;20.60;99.90
14962;DHT22;56489;53.166;10.864;2022-08-25T08:31:51;20.70;99.90
14962;DHT22;56489;53.166;10.864;2022-08-25T08:34:18;20.90;99.90
14962;DHT22;56489;53.166;10.864;2022-08-25T08:36:50;21.00;99.90
14962;DHT22;56489;53.166;10.864;2022-08-25T08:39:17;21.10;99.90
14962;DHT22;56489;53.166;10.864;2022-08-25T08:41:52;21.20;99.90
14962;DHT22;56489;53.166;10.864;2022-08-25T08:50:28;21.50;99.90
14962;DHT22;56489;53.166;10.864;2022-08-25T08:56:14;21.80;99.90
14962;DHT22;56489;53.166;10.864;2022-08-25T09:01:29;22.00;99.90
14962;DHT22;56489;53.166;10.864;2022-08-25T09:04:07;22.30;99.90
14962;DHT22;56489;53.166;10.864;2022-08-25T09:06:41;22.60;99.90
14962;DHT22;56489;53.166;10.864;2022-08-25T09:09:12;22.70;99.90
14962;DHT22;56489;53.166;10.864;2022-08-25T09:14:41;23.10;99.90
14962;DHT22;56489;53.166;10.864;2022-08-25T09:20:50;23.20;99.90
14962;DHT22;56489;53.166;10.864;2022-08-25T09:23:50;23.30;99.90
14962;DHT22;56489;53.166;10.864;2022-08-25T09:26:32;23.20;99.90
14962;DHT22;56489;53.166;10.864;2022-08-25T09:29:07;23.10;99.90
14962;DHT22;56489;53.166;10.864;2022-08-25T09:31:42;23.00;99.90
14962;DHT22;56489;53.166;10.864;2022-08-25T09:34:16;22.90;99.90
14962;DHT22;56489;53.166;10.864;2022-08-25T09:36:44;22.80;99.90
14962;DHT22;56489;53.166;10.864;2022-08-25T09:39:14;22.70;99.90
14962;DHT22;56489;53.166;10.864;2022-08-25T09:41:48;22.70;99.90
14962;DHT22;56489;53.166;10.864;2022-08-25T09:44:24;22.70;99.90
14962;DHT22;56489;53.166;10.864;2022-08-25T09:47:22;22.70;99.90
14962;DHT22;56489;53.166;10.864;2022-08-25T09:49:57;22.70;99.90
14962;DHT22;56489;53.166;10.864;2022-08-25T09:52:37;22.70;99.90
14962;DHT22;56489;53.166;10.864;2022-08-25T09:57:46;22.90;99.90
14962;DHT22;56489;53.166;10.864;2022-08-25T10:00:20;23.10;99.90
14962;DHT22;56489;53.166;10.864;2022-08-25T10:03:10;23.10;99.90
14962;DHT22;56489;53.166;10.864;2022-08-25T10:05:58;23.20;99.90
14962;DHT22;56489;53.166;10.864;2022-08-25T10:11:13;23.50;99.90
14962;DHT22;56489;53.166;10.864;2022-08-25T10:13:48;23.60;99.90
14962;DHT22;56489;53.166;10.864;2022-08-25T10:16:25;23.70;99.90
14962;DHT22;56489;53.166;10.864;2022-08-25T10:19:07;23.80;99.90
14962;DHT22;56489;53.166;10.864;2022-08-25T10:21:36;23.90;99.90
14962;DHT22;56489;53.166;10.864;2022-08-25T10:24:04;24.00;99.90
14962;DHT22;56489;53.166;10.864;2022-08-25T10:26:59;24.10;99.90
14962;DHT22;56489;53.166;10.864;2022-08-25T10:32:20;24.40;99.90
14962;DHT22;56489;53.166;10.864;2022-08-25T10:34:54;24.60;99.90
14962;DHT22;56489;53.166;10.864;2022-08-25T10:37:40;24.60;99.90
14962;DHT22;56489;53.166;10.864;2022-08-25T10:40:26;24.70;99.90
14962;DHT22;56489;53.166;10.864;2022-08-25T10:43:10;24.90;99.90
14962;DHT22;56489;53.166;10.864;2022-08-25T10:45:55;25.10;99.90
14962;DHT22;56489;53.166;10.864;2022-08-25T10:48:42;25.20;99.90
14962;DHT22;56489;53.166;10.864;2022-08-25T10:51:31;25.40;99.90
14962;DHT22;56489;53.166;10.864;2022-08-25T10:56:40;25.60;99.90
14962;DHT22;56489;53.166;10.864;2022-08-25T10:59:40;25.70;99.90
14962;DHT22;56489;53.166;10.864;2022-08-25T11:07:53;25.70;99.90
14962;DHT22;56489;53.166;10.864;2022-08-25T11:10:35;25.80;99.90
14962;DHT22;56489;53.166;10.864;2022-08-25T11:13:06;25.80;99.90
14962;DHT22;56489;53.166;10.864;2022-08-25T11:15:42;26.00;99.90
14962;DHT22;56489;53.166;10.864;2022-08-25T11:18:32;26.20;99.90
14962;DHT22;56489;53.166;10.864;2022-08-25T11:21:08;26.40;99.90
14962;DHT22;56489;53.166;10.864;2022-08-25T11:23:40;26.40;99.90
14962;DHT22;56489;53.166;10.864;2022-08-25T11:26:12;26.30;99.90
14962;DHT22;56489;53.166;10.864;2022-08-25T11:29:13;26.10;99.90
14962;DHT22;56489;53.166;10.864;2022-08-25T11:31:41;26.10;99.90
14962;DHT22;56489;53.166;10.864;2022-08-25T11:34:12;26.00;99.90
14962;DHT22;56489;53.166;10.864;2022-08-25T11:37:18;26.00;99.90
14962;DHT22;56489;53.166;10.864;2022-08-25T11:43:06;26.00;99.90
14962;DHT22;56489;53.166;10.864;2022-08-25T11:48:34;26.00;99.90
14962;DHT22;56489;53.166;10.864;2022-08-25T11:51:08;26.10;99.90
14962;DHT22;56489;53.166;10.864;2022-08-25T11:53:38;26.20;99.90
14962;DHT22;56489;53.166;10.864;2022-08-25T11:56:29;26.40;99.90
14962;DHT22;56489;53.166;10.864;2022-08-25T11:58:58;26.50;99.90
14962;DHT22;56489;53.166;10.864;2022-08-25T12:09:34;27.00;99.90
14962;DHT22;56489;53.166;10.864;2022-08-25T12:14:54;27.10;99.90
14962;DHT22;56489;53.166;10.864;2022-08-25T12:17:24;27.30;99.90
14962;DHT22;56489;53.166;10.864;2022-08-25T12:19:54;27.30;99.90
14962;DHT22;56489;53.166;10.864;2022-08-25T12:24:50;27.60;99.90
14962;DHT22;56489;53.166;10.864;2022-08-25T12:27:28;27.60;99.90
14962;DHT22;56489;53.166;10.864;2022-08-25T12:30:23;27.60;99.90
14962;DHT22;56489;53.166;10.864;2022-08-25T12:35:38;27.70;99.90
14962;DHT22;56489;53.166;10.864;2022-08-25T12:38:17;27.80;99.90
14962;DHT22;56489;53.166;10.864;2022-08-25T12:41:09;27.70;99.90
14962;DHT22;56489;53.166;10.864;2022-08-25T12:43:40;27.60;99.90
14962;DHT22;56489;53.166;10.864;2022-08-25T12:51:59;27.10;99.90
14962;DHT22;56489;53.166;10.864;2022-08-25T12:54:47;26.90;99.90
14962;DHT22;56489;53.166;10.864;2022-08-25T12:57:24;27.00;99.90
14962;DHT22;56489;53.166;10.864;2022-08-25T12:59:57;26.90;99.90
14962;DHT22;56489;53.166;10.864;2022-08-25T13:05:45;27.00;99.90
14962;DHT22;56489;53.166;10.864;2022-08-25T13:08:43;27.00;99.90
14962;DHT22;56489;53.166;10.864;2022-08-25T13:11:17;27.00;99.90
14962;DHT22;56489;53.166;10.864;2022-08-25T13:16:24;27.00;99.90
14962;DHT22;56489;53.166;10.864;2022-08-25T13:18:56;26.90;99.90
14962;DHT22;56489;53.166;10.864;2022-08-25T13:21:35;26.80;99.90
14962;DHT22;56489;53.166;10.864;2022-08-25T13:24:07;26.70;99.90
14962;DHT22;56489;53.166;10.864;2022-08-25T13:26:39;26.70;99.90
14962;DHT22;56489;53.166;10.864;2022-08-25T13:29:18;26.60;99.90
14962;DHT22;56489;53.166;10.864;2022-08-25T13:34:21;26.50;99.90
14962;DHT22;56489;53.166;10.864;2022-08-25T13:37:15;26.50;99.90
14962;DHT22;56489;53.166;10.864;2022-08-25T13:42:47;26.50;99.90
14962;DHT22;56489;53.166;10.864;2022-08-25T13:45:23;26.50;99.90
14962;DHT22;56489;53.166;10.864;2022-08-25T13:47:51;26.70;99.90
14962;DHT22;56489;53.166;10.864;2022-08-25T13:50:34;26.70;99.90
14962;DHT22;56489;53.166;10.864;2022-08-25T13:53:12;26.70;99.90
14962;DHT22;56489;53.166;10.864;2022-08-25T13:55:47;26.80;99.90
14962;DHT22;56489;53.166;10.864;2022-08-25T13:58:28;26.80;99.90
14962;DHT22;56489;53.166;10.864;2022-08-25T14:01:20;26.80;99.90
14962;DHT22;56489;53.166;10.864;2022-08-25T14:09:50;26.70;99.90
14962;DHT22;56489;53.166;10.864;2022-08-25T14:12:40;26.60;99.90
14962;DHT22;56489;53.166;10.864;2022-08-25T14:17:42;26.50;99.90
14962;DHT22;56489;53.166;10.864;2022-08-25T14:20:16;26.50;99.90
14962;DHT22;56489;53.166;10.864;2022-08-25T14:22:44;26.60;99.90
14962;DHT22;56489;53.166;10.864;2022-08-25T14:25:11;26.50;99.90
14962;DHT22;56489;53.166;10.864;2022-08-25T14:27:41;26.60;99.90
14962;DHT22;56489;53.166;10.864;2022-08-25T14:30:30;26.50;99.90
14962;DHT22;56489;53.166;10.864;2022-08-25T14:32:59;26.50;99.90
14962;DHT22;56489;53.166;10.864;2022-08-25T14:35:27;26.50;99.90
14962;DHT22;56489;53.166;10.864;2022-08-25T14:37:56;26.50;99.90
14962;DHT22;56489;53.166;10.864;2022-08-25T14:40:23;26.50;99.90
14962;DHT22;56489;53.166;10.864;2022-08-25T14:42:50;26.70;99.90
14962;DHT22;56489;53.166;10.864;2022-08-25T14:45:17;26.70;99.90
14962;DHT22;56489;53.166;10.864;2022-08-25T14:47:45;26.70;99.90
14962;DHT22;56489;53.166;10.864;2022-08-25T14:50:17;26.70;99.90
14962;DHT22;56489;53.166;10.864;2022-08-25T14:52:46;26.70;99.90
14962;DHT22;56489;53.166;10.864;2022-08-25T14:55:17;26.70;99.90
14962;DHT22;56489;53.166;10.864;2022-08-25T14:57:58;26.70;99.90
14962;DHT22;56489;53.166;10.864;2022-08-25T15:00:24;26.80;99.90
14962;DHT22;56489;53.166;10.864;2022-08-25T15:02:51;26.90;99.90
14962;DHT22;56489;53.166;10.864;2022-08-25T15:05:22;27.00;99.90
14962;DHT22;56489;53.166;10.864;2022-08-25T15:07:51;27.00;99.90
14962;DHT22;56489;53.166;10.864;2022-08-25T15:10:38;27.00;99.90
14962;DHT22;56489;53.166;10.864;2022-08-25T15:13:05;27.10;99.90
14962;DHT22;56489;53.166;10.864;2022-08-25T15:15:34;27.20;99.90
14962;DHT22;56489;53.166;10.864;2022-08-25T15:18:03;27.00;99.90
14962;DHT22;56489;53.166;10.864;2022-08-25T15:20:31;27.00;99.90
14962;DHT22;56489;53.166;10.864;2022-08-25T15:22:58;27.00;99.90
14962;DHT22;56489;53.166;10.864;2022-08-25T15:25:25;27.00;99.90
14962;DHT22;56489;53.166;10.864;2022-08-25T15:27:52;27.00;99.90
14962;DHT22;56489;53.166;10.864;2022-08-25T15:30:20;26.90;99.90
14962;DHT22;56489;53.166;10.864;2022-08-25T15:32:56;27.00;99.90
14962;DHT22;56489;53.166;10.864;2022-08-25T15:35:23;27.10;99.90
14962;DHT22;56489;53.166;10.864;2022-08-25T15:37:54;27.00;99.90
14962;DHT22;56489;53.166;10.864;2022-08-25T15:40:21;26.90;99.90
14962;DHT22;56489;53.166;10.864;2022-08-25T15:42:48;27.00;99.90
14962;DHT22;56489;53.166;10.864;2022-08-25T15:45:15;26.90;99.90
14962;DHT22;56489;53.166;10.864;2022-08-25T15:47:43;26.90;99.90
14962;DHT22;56489;53.166;10.864;2022-08-25T15:50:14;26.80;99.90
14962;DHT22;56489;53.166;10.864;2022-08-25T15:52:41;26.70;99.90
14962;DHT22;56489;53.166;10.864;2022-08-25T15:55:13;26.70;99.90
14962;DHT22;56489;53.166;10.864;2022-08-25T15:57:40;26.60;99.90
14962;DHT22;56489;53.166;10.864;2022-08-25T16:00:09;26.60;99.90
14962;DHT22;56489;53.166;10.864;2022-08-25T16:02:39;26.60;99.90
14962;DHT22;56489;53.166;10.864;2022-08-25T16:05:07;26.50;99.90
14962;DHT22;56489;53.166;10.864;2022-08-25T16:07:34;26.60;99.90
14962;DHT22;56489;53.166;10.864;2022-08-25T16:10:03;26.60;99.90
14962;DHT22;56489;53.166;10.864;2022-08-25T16:12:30;26.70;99.90
14962;DHT22;56489;53.166;10.864;2022-08-25T16:14:57;26.60;99.90
14962;DHT22;56489;53.166;10.864;2022-08-25T16:17:24;26.80;99.90
14962;DHT22;56489;53.166;10.864;2022-08-25T16:19:50;26.60;99.90
14962;DHT22;56489;53.166;10.864;2022-08-25T16:22:17;26.70;99.90
14962;DHT22;56489;53.166;10.864;2022-08-25T16:24:43;26.70;99.90
14962;DHT22;56489;53.166;10.864;2022-08-25T16:27:11;26.70;99.90
14962;DHT22;56489;53.166;10.864;2022-08-25T16:29:40;26.60;99.90
14962;DHT22;56489;53.166;10.864;2022-08-25T16:32:08;26.60;99.90
14962;DHT22;56489;53.166;10.864;2022-08-25T16:34:35;26.60;99.90
14962;DHT22;56489;53.166;10.864;2022-08-25T16:37:04;26.50;99.90
14962;DHT22;56489;53.166;10.864;2022-08-25T16:39:31;26.50;99.90
14962;DHT22;56489;53.166;10.864;2022-08-25T16:41:58;26.40;99.90
14962;DHT22;56489;53.166;10.864;2022-08-25T16:44:25;26.30;99.90
14962;DHT22;56489;53.166;10.864;2022-08-25T16:46:51;26.30;99.90
14962;DHT22;56489;53.166;10.864;2022-08-25T16:49:22;26.20;99.90
14962;DHT22;56489;53.166;10.864;2022-08-25T16:51:50;26.10;99.90
14962;DHT22;56489;53.166;10.864;2022-08-25T16:54:22;26.10;99.90
14962;DHT22;56489;53.166;10.864;2022-08-25T16:57:07;26.10;99.90
14962;DHT22;56489;53.166;10.864;2022-08-25T16:59:34;26.10;99.90
14962;DHT22;56489;53.166;10.864;2022-08-25T17:02:01;26.00;99.90
14962;DHT22;56489;53.166;10.864;2022-08-25T17:04:27;26.10;99.90
14962;DHT22;56489;53.166;10.864;2022-08-25T17:06:58;26.10;99.90